Time;durP1;ratioP1;P1;durP2;ratioP2;P2;SDS_P1;SDS_P2;PMS_P1;PMS_P2;Temp;Humidity;BMP_temperature;BMP_pressure;BME280_temperature;BME280_humidity;BME280_pressure;Samples;Min_cycle;Max_cycle;Signal;HPM_P1;HPM_P2
2022/03/18 00:01:09;;;;;;;11.85;5.78;;;8.00;86.40;;;;;;5053480;28;20037;-72
2022/03/18 00:03:34;;;;;;;11.43;5.50;;;8.10;86.70;;;;;;5052540;28;20112;-72
2022/03/18 00:06:00;;;;;;;16.73;6.20;;;8.10;86.60;;;;;;5064856;28;20167;-72
2022/03/18 00:08:25;;;;;;;15.82;6.18;;;8.00;86.50;;;;;;5075525;28;20033;-71
2022/03/18 00:10:51;;;;;;;15.05;5.53;;;8.10;87.00;;;;;;5076888;28;20072;-72
2022/03/18 00:13:16;;;;;;;13.63;5.80;;;8.10;87.40;;;;;;5076087;28;20054;-70
2022/03/18 00:15:42;;;;;;;13.73;6.07;;;8.00;86.60;;;;;;5074917;28;20035;-71
2022/03/18 00:18:08;;;;;;;15.38;5.80;;;8.00;86.80;;;;;;5074646;28;20029;-70
2022/03/18 00:20:33;;;;;;;17.50;6.25;;;8.00;87.00;;;;;;5065310;28;20033;-71
2022/03/18 00:22:59;;;;;;;13.95;6.20;;;8.00;87.10;;;;;;5053128;28;20469;-71
2022/03/18 00:25:25;;;;;;;15.88;6.18;;;7.90;87.40;;;;;;5051851;28;20482;-70
2022/03/18 00:27:51;;;;;;;12.88;5.88;;;7.90;87.40;;;;;;5051742;28;20032;-73
2022/03/18 00:30:17;;;;;;;17.48;6.07;;;7.90;87.30;;;;;;5053141;28;20033;-72
2022/03/18 00:32:44;;;;;;;11.40;5.93;;;8.00;86.60;;;;;;5053284;28;20020;-71
2022/03/18 00:35:10;;;;;;;11.55;5.35;;;7.90;86.80;;;;;;5052419;28;20040;-71
2022/03/18 00:37:37;;;;;;;13.82;5.13;;;7.90;86.90;;;;;;5053191;28;20029;-72
2022/03/18 00:40:04;;;;;;;12.57;5.15;;;7.90;87.00;;;;;;5051894;28;20044;-71
2022/03/18 00:42:31;;;;;;;20.05;6.43;;;8.00;86.20;;;;;;5056324;28;20063;-71
2022/03/18 00:45:00;;;;;;;14.68;5.13;;;7.90;86.40;;;;;;5055245;28;20409;-70
2022/03/18 00:52:55;;;;;;;13.30;5.60;;;7.90;86.50;;;;;;5067760;28;20096;-70
2022/03/18 00:55:21;;;;;;;11.13;5.47;;;7.90;86.20;;;;;;5074894;28;20013;-71
2022/03/18 00:57:47;;;;;;;12.52;5.50;;;7.80;86.50;;;;;;5061635;28;20135;-72
2022/03/18 01:00:12;;;;;;;13.65;5.90;;;7.80;86.60;;;;;;5072506;28;20035;-72
2022/03/18 01:02:38;;;;;;;12.25;5.63;;;7.80;87.00;;;;;;5074830;28;20028;-71
2022/03/18 01:07:33;;;;;;;17.40;5.97;;;7.90;86.30;;;;;;5063054;28;20102;-65
2022/03/18 01:09:59;;;;;;;14.98;5.80;;;7.90;86.60;;;;;;5064115;28;20051;-67
2022/03/18 01:12:25;;;;;;;17.27;5.72;;;7.90;86.30;;;;;;5064077;28;20029;-65
2022/03/18 01:14:51;;;;;;;14.55;5.63;;;7.80;87.10;;;;;;5066949;28;20033;-66
2022/03/18 01:17:17;;;;;;;15.05;5.75;;;7.80;87.10;;;;;;5062866;28;20108;-66
2022/03/18 01:19:43;;;;;;;12.13;5.93;;;7.80;87.30;;;;;;5060509;28;20035;-66
2022/03/18 01:22:09;;;;;;;14.68;5.72;;;7.80;87.40;;;;;;5052582;28;20083;-66
2022/03/18 01:24:35;;;;;;;11.75;6.13;;;7.80;88.20;;;;;;5052774;28;20024;-66
2022/03/18 01:27:02;;;;;;;13.52;5.22;;;7.80;87.50;;;;;;5051279;28;20438;-66
2022/03/18 01:29:27;;;;;;;20.55;6.30;;;7.80;87.60;;;;;;5051520;28;20676;-67
2022/03/18 01:31:53;;;;;;;12.27;5.95;;;7.90;87.50;;;;;;5052793;28;20029;-68
2022/03/18 01:34:19;;;;;;;13.65;5.60;;;7.80;87.70;;;;;;5051637;28;20029;-66
2022/03/18 01:36:44;;;;;;;11.07;5.35;;;7.80;87.50;;;;;;5054726;28;20028;-68
2022/03/18 01:39:12;;;;;;;16.88;5.30;;;7.80;87.40;;;;;;5055689;28;20444;-68
2022/03/18 01:41:38;;;;;;;14.77;6.03;;;7.80;87.40;;;;;;5052461;28;20027;-66
2022/03/18 01:44:04;;;;;;;14.43;5.25;;;7.80;87.30;;;;;;5053453;28;20425;-65
2022/03/18 01:46:30;;;;;;;14.38;5.85;;;7.80;87.20;;;;;;5052378;28;20029;-66
2022/03/18 01:48:55;;;;;;;15.77;4.95;;;7.80;87.20;;;;;;5051969;28;20067;-66
2022/03/18 01:51:22;;;;;;;10.75;5.32;;;7.70;87.60;;;;;;5052697;28;20058;-67
2022/03/18 01:54:44;;;;;;;20.60;5.78;;;7.70;87.50;;;;;;5052549;28;20025;-66
2022/03/18 01:56:33;;;;;;;12.43;6.20;;;7.80;87.50;;;;;;5052227;28;20025;-65
2022/03/18 01:58:59;;;;;;;13.30;5.53;;;7.60;87.50;;;;;;5058482;28;20036;-65
2022/03/18 02:01:24;;;;;;;15.23;5.55;;;7.60;87.70;;;;;;5058322;28;20029;-65
2022/03/18 02:03:50;;;;;;;12.30;5.38;;;7.70;87.50;;;;;;5054007;28;20049;-66
2022/03/18 02:06:16;;;;;;;13.15;5.72;;;7.70;86.70;;;;;;5051027;28;20065;-65
2022/03/18 02:08:45;;;;;;;18.17;6.20;;;7.80;86.60;;;;;;5052801;28;20041;-66
2022/03/18 02:11:10;;;;;;;15.10;5.47;;;7.70;86.60;;;;;;5051958;28;20033;-66
2022/03/18 02:13:36;;;;;;;15.90;5.90;;;7.70;86.80;;;;;;5052077;28;20048;-66
2022/03/18 02:16:03;;;;;;;14.32;5.45;;;7.70;86.70;;;;;;5051833;28;20044;-66
2022/03/18 02:18:28;;;;;;;14.23;6.15;;;7.80;86.20;;;;;;5052235;28;20017;-66
2022/03/18 02:20:54;;;;;;;15.68;5.85;;;7.70;86.20;;;;;;5051470;28;20453;-66
2022/03/18 02:23:19;;;;;;;15.05;5.68;;;7.70;86.50;;;;;;5052311;28;20032;-67
2022/03/18 02:25:47;;;;;;;16.33;5.95;;;7.70;86.50;;;;;;5051691;28;20052;-66
2022/03/18 02:28:13;;;;;;;10.38;5.10;;;7.80;85.90;;;;;;5056824;28;20066;-66
2022/03/18 02:30:38;;;;;;;15.45;4.97;;;7.70;86.00;;;;;;5057405;28;20126;-66
2022/03/18 02:33:04;;;;;;;16.23;5.25;;;7.60;86.10;;;;;;5051842;28;20029;-67
2022/03/18 02:35:30;;;;;;;17.77;5.30;;;7.60;86.10;;;;;;5051332;28;20029;-65
2022/03/18 02:38:00;;;;;;;15.63;5.20;;;7.70;86.00;;;;;;5051180;28;20116;-66
2022/03/18 02:40:26;;;;;;;11.48;4.95;;;7.60;85.60;;;;;;5056188;28;20029;-67
2022/03/18 02:42:52;;;;;;;12.95;5.82;;;7.70;85.70;;;;;;5055465;28;20509;-66
2022/03/18 02:45:18;;;;;;;14.38;4.72;;;7.60;85.40;;;;;;5055524;28;20076;-67
2022/03/18 02:47:44;;;;;;;14.90;5.55;;;7.60;85.10;;;;;;5055918;28;20029;-66
2022/03/18 02:50:10;;;;;;;17.05;4.75;;;7.60;85.30;;;;;;5055126;28;20481;-65
2022/03/18 02:52:36;;;;;;;13.40;5.05;;;7.60;85.20;;;;;;5059009;28;20096;-65
2022/03/18 02:55:01;;;;;;;13.15;4.70;;;7.70;84.60;;;;;;5071472;28;20163;-67
2022/03/18 02:57:27;;;;;;;12.23;4.72;;;7.70;85.30;;;;;;5067370;28;20769;-67
2022/03/18 02:59:53;;;;;;;15.60;4.13;;;7.70;84.30;;;;;;5058713;28;20039;-66
2022/03/18 03:02:19;;;;;;;10.05;4.45;;;7.70;83.90;;;;;;5056697;28;20021;-66
2022/03/18 03:10:12;;;;;;;10.40;4.07;;;7.70;83.60;;;;;;5054462;28;20044;-66
2022/03/18 03:12:41;;;;;;;12.80;4.78;;;7.70;83.10;;;;;;5065702;28;20025;-65
2022/03/18 03:15:07;;;;;;;7.47;3.50;;;7.60;82.70;;;;;;5068350;28;20039;-65
2022/03/18 03:17:33;;;;;;;16.00;4.68;;;7.60;82.60;;;;;;5065883;28;20024;-66
2022/03/18 03:19:59;;;;;;;13.75;3.67;;;7.60;83.00;;;;;;5055032;28;20104;-65
2022/03/18 03:22:24;;;;;;;10.98;3.70;;;7.60;82.20;;;;;;5055123;28;20025;-64
2022/03/18 03:24:50;;;;;;;16.52;4.60;;;7.70;82.50;;;;;;5054091;28;20024;-65
2022/03/18 03:27:17;;;;;;;11.70;3.83;;;7.60;82.00;;;;;;5053762;28;20684;-66
2022/03/18 03:29:43;;;;;;;11.90;4.10;;;7.60;82.20;;;;;;5053105;28;20029;-65
2022/03/18 03:32:08;;;;;;;12.07;3.85;;;7.50;82.00;;;;;;5054407;28;20083;-66
2022/03/18 03:34:35;;;;;;;11.80;3.30;;;7.60;81.70;;;;;;5054257;28;20090;-66
2022/03/18 03:37:01;;;;;;;12.45;3.70;;;7.60;81.70;;;;;;5055301;28;20043;-66
2022/03/18 03:39:26;;;;;;;11.45;3.05;;;7.60;81.70;;;;;;5054931;28;20049;-65
2022/03/18 03:41:52;;;;;;;20.05;4.25;;;7.50;81.60;;;;;;5053254;28;20037;-66
2022/03/18 03:44:17;;;;;;;11.43;3.40;;;7.50;81.50;;;;;;5053741;28;20036;-66
2022/03/18 03:46:43;;;;;;;15.35;3.83;;;7.60;81.80;;;;;;5053756;28;20025;-68
2022/03/18 03:49:09;;;;;;;10.00;4.32;;;7.60;81.10;;;;;;5053220;28;20037;-67
2022/03/18 03:51:35;;;;;;;11.88;3.50;;;7.50;81.20;;;;;;5053656;28;20112;-64
2022/03/18 03:54:00;;;;;;;14.02;3.88;;;7.60;81.40;;;;;;5053729;28;20108;-65
2022/03/18 03:56:26;;;;;;;11.68;3.55;;;7.50;81.10;;;;;;5052216;28;20029;-65
2022/03/18 03:58:51;;;;;;;11.25;3.75;;;7.50;81.40;;;;;;5053659;28;20537;-65
2022/03/18 04:01:17;;;;;;;12.40;3.50;;;7.60;81.10;;;;;;5052401;28;20063;-66
2022/03/18 04:03:45;;;;;;;10.70;3.38;;;7.50;81.10;;;;;;5052093;28;20378;-65
2022/03/18 04:06:10;;;;;;;14.45;3.50;;;7.50;81.70;;;;;;5052603;28;20029;-68
2022/03/18 04:08:36;;;;;;;10.63;3.30;;;7.50;81.10;;;;;;5052646;28;20098;-65
2022/03/18 04:11:02;;;;;;;15.68;3.70;;;7.40;81.40;;;;;;5053497;28;20082;-64
2022/03/18 04:13:28;;;;;;;8.73;3.75;;;7.40;81.50;;;;;;5052612;28;20124;-65
2022/03/18 04:15:54;;;;;;;12.63;3.58;;;7.40;81.60;;;;;;5053056;28;20036;-65
2022/03/18 04:18:19;;;;;;;13.80;3.67;;;7.30;81.50;;;;;;5056099;28;20102;-62
2022/03/18 04:20:45;;;;;;;9.13;3.33;;;7.40;82.90;;;;;;5056378;28;20104;-66
2022/03/18 04:23:10;;;;;;;16.23;3.67;;;7.40;81.10;;;;;;5053642;28;20123;-66
2022/03/18 04:25:36;;;;;;;17.60;3.80;;;7.40;81.50;;;;;;5033384;28;20481;-66
2022/03/18 04:28:03;;;;;;;17.08;5.40;;;7.40;81.60;;;;;;5035872;28;20031;-66
2022/03/18 04:30:29;;;;;;;18.02;6.57;;;7.40;81.80;;;;;;5052175;28;20029;-66
2022/03/18 04:32:54;;;;;;;12.52;4.40;;;7.30;81.40;;;;;;5053656;28;20036;-66
2022/03/18 04:35:20;;;;;;;21.67;6.53;;;7.30;81.40;;;;;;5054607;28;20062;-65
2022/03/18 04:37:46;;;;;;;23.65;7.72;;;7.30;81.30;;;;;;5053686;28;20039;-67
2022/03/18 04:40:13;;;;;;;13.98;3.95;;;7.30;81.20;;;;;;5050491;28;20032;-67
2022/03/18 04:42:40;;;;;;;21.85;6.22;;;7.40;81.10;;;;;;5052122;28;20052;-66
2022/03/18 04:45:06;;;;;;;11.93;4.10;;;7.30;80.80;;;;;;5052553;28;20388;-67
2022/03/18 04:47:33;;;;;;;11.07;3.33;;;7.30;81.00;;;;;;5052736;28;20388;-65
2022/03/18 04:50:00;;;;;;;12.45;4.25;;;7.30;81.10;;;;;;5050453;28;20025;-64
2022/03/18 04:52:26;;;;;;;15.30;4.78;;;7.20;81.10;;;;;;5052515;28;20496;-67
2022/03/18 04:54:51;;;;;;;12.32;3.70;;;7.20;81.20;;;;;;5052606;28;20031;-65
2022/03/18 04:57:20;;;;;;;19.05;4.15;;;7.20;80.90;;;;;;5052152;28;20021;-67
2022/03/18 04:59:49;;;;;;;15.85;4.00;;;7.20;81.00;;;;;;5052534;28;20017;-67
2022/03/18 05:02:15;;;;;;;15.35;4.57;;;7.10;81.00;;;;;;5053773;28;20037;-67
2022/03/18 05:04:44;;;;;;;13.65;4.43;;;7.10;80.90;;;;;;5052104;28;20035;-66
2022/03/18 05:07:11;;;;;;;14.32;4.00;;;7.00;81.10;;;;;;5053076;28;20033;-66
2022/03/18 05:09:39;;;;;;;17.90;6.00;;;7.00;81.30;;;;;;5060639;28;20033;-66
2022/03/18 05:12:09;;;;;;;16.83;4.35;;;7.00;81.40;;;;;;5056400;28;20477;-67
2022/03/18 05:14:35;;;;;;;13.45;4.05;;;6.90;81.20;;;;;;5051098;28;20128;-64
2022/03/18 05:17:01;;;;;;;15.65;3.10;;;6.80;81.30;;;;;;5054454;28;20071;-65
2022/03/18 05:19:27;;;;;;;12.95;3.28;;;6.80;81.20;;;;;;5053997;28;20037;-65
2022/03/18 05:21:52;;;;;;;11.15;2.83;;;6.80;81.50;;;;;;5055744;28;20021;-65
2022/03/18 05:24:18;;;;;;;15.13;3.40;;;6.70;81.70;;;;;;5058190;28;20025;-65
2022/03/18 05:26:44;;;;;;;10.98;3.10;;;6.70;82.00;;;;;;5055619;28;20025;-65
2022/03/18 05:29:09;;;;;;;10.38;2.92;;;6.70;82.10;;;;;;5054752;28;20017;-66
2022/03/18 05:31:36;;;;;;;16.85;2.95;;;6.60;82.10;;;;;;5053030;28;20028;-64
2022/03/18 05:34:02;;;;;;;11.40;2.85;;;6.60;82.20;;;;;;5053383;28;20132;-65
2022/03/18 05:36:28;;;;;;;8.25;2.55;;;6.90;83.50;;;;;;5053916;28;20061;-64
2022/03/18 05:38:53;;;;;;;10.20;2.55;;;6.80;81.10;;;;;;5055022;28;20035;-65
2022/03/18 05:41:19;;;;;;;11.55;2.97;;;6.60;81.60;;;;;;5054178;28;20473;-65
2022/03/18 05:43:44;;;;;;;11.40;2.78;;;6.70;81.80;;;;;;5055110;28;20077;-64
2022/03/18 05:46:11;;;;;;;16.25;2.72;;;6.70;81.70;;;;;;5055235;28;20089;-66
2022/03/18 05:48:37;;;;;;;13.98;2.80;;;6.70;82.10;;;;;;5055845;28;20058;-64
2022/03/18 05:51:03;;;;;;;11.35;3.13;;;6.70;81.00;;;;;;5053031;28;20108;-66
2022/03/18 05:53:29;;;;;;;7.35;2.55;;;6.70;80.90;;;;;;5056002;28;20489;-65
2022/03/18 05:58:41;;;;;;;;;;;6.70;80.90;;;;;;5055412;28;20086;-64
2022/03/18 06:01:07;;;;;;;13.18;3.20;;;6.60;80.90;;;;;;5056041;28;20106;-65
2022/03/18 06:03:33;;;;;;;14.02;3.45;;;6.60;80.50;;;;;;5055286;28;20029;-64
2022/03/18 06:05:59;;;;;;;16.02;3.50;;;6.60;80.50;;;;;;5054775;28;20032;-64
2022/03/18 06:13:53;;;;;;;16.53;3.13;;;6.70;80.00;;;;;;5056101;28;20031;-65
2022/03/18 06:16:18;;;;;;;15.07;3.22;;;6.90;79.00;;;;;;5056560;28;20104;-64
2022/03/18 06:18:44;;;;;;;10.45;2.60;;;6.90;79.00;;;;;;5057141;28;20115;-66
2022/03/18 06:21:12;;;;;;;13.15;2.55;;;6.70;78.40;;;;;;5062769;28;20036;-66
2022/03/18 06:23:38;;;;;;;13.80;3.10;;;6.60;79.00;;;;;;5056956;28;20045;-64
2022/03/18 06:26:04;;;;;;;10.93;2.58;;;6.50;79.00;;;;;;5056110;28;20056;-65
2022/03/18 06:28:31;;;;;;;13.90;2.90;;;6.80;78.30;;;;;;5059145;28;20029;-65
2022/03/18 06:30:56;;;;;;;15.50;3.00;;;7.10;76.90;;;;;;5057508;28;20033;-64
2022/03/18 06:33:22;;;;;;;8.95;2.72;;;6.80;77.20;;;;;;5059342;28;20032;-64
2022/03/18 06:35:47;;;;;;;13.88;2.88;;;6.80;77.70;;;;;;5059144;28;20024;-64
2022/03/18 06:38:13;;;;;;;14.52;2.60;;;6.60;77.20;;;;;;5054826;28;20037;-65
2022/03/18 06:40:39;;;;;;;11.80;2.88;;;6.60;78.00;;;;;;5055031;28;20025;-65
2022/03/18 06:43:04;;;;;;;11.13;2.47;;;6.90;77.10;;;;;;5053821;28;20032;-66
2022/03/18 06:45:30;;;;;;;14.38;3.38;;;6.90;77.10;;;;;;5056705;28;20029;-66
2022/03/18 06:47:55;;;;;;;10.85;2.83;;;6.80;76.20;;;;;;5057833;28;20033;-67
2022/03/18 06:50:22;;;;;;;8.23;2.58;;;;;;;;;;5051944;28;20032;-67
2022/03/18 06:52:48;;;;;;;15.98;2.78;;;;;;;;;;5043337;28;20040;-67
2022/03/18 06:55:14;;;;;;;15.80;2.97;;;;;;;;;;5056334;28;20025;-65
2022/03/18 06:57:42;;;;;;;6.97;2.78;;;;;;;;;;5053175;28;20341;-64
2022/03/18 07:00:08;;;;;;;13.95;2.97;;;;;;;;;;5055118;28;20027;-66
2022/03/18 07:02:34;;;;;;;9.82;2.90;;;;;;;;;;5052367;28;20064;-65
2022/03/18 07:05:00;;;;;;;15.05;3.33;;;6.70;75.50;;;;;;5055190;28;20033;-65
2022/03/18 07:07:26;;;;;;;9.05;2.67;;;7.10;76.60;;;;;;5077161;22;20060;-71
2022/03/18 07:09:51;;;;;;;9.25;3.78;;;7.40;75.30;;;;;;5057216;28;20037;-73
2022/03/18 07:12:17;;;;;;;17.98;4.05;;;7.90;72.30;;;;;;5054231;28;20025;-72
2022/03/18 07:14:42;;;;;;;12.98;2.72;;;8.00;69.80;;;;;;5054284;28;20112;-73
2022/03/18 07:19:52;;;;;;;10.73;2.65;;;8.50;67.00;;;;;;5049947;28;20070;-68
2022/03/18 07:22:19;;;;;;;12.27;3.00;;;8.40;69.70;;;;;;5059591;28;20033;-70
2022/03/18 07:24:45;;;;;;;12.07;2.55;;;;;;;;;;5059040;28;20064;-70
2022/03/18 07:27:11;;;;;;;11.35;2.80;;;;;;;;;;5062012;28;20036;-69
2022/03/18 07:29:37;;;;;;;12.00;2.80;;;;;;;;;;5057613;28;20036;-70
2022/03/18 07:32:03;;;;;;;15.20;2.97;;;;;;;;;;5060876;28;20370;-72
2022/03/18 07:34:29;;;;;;;9.23;2.25;;;;;;;;;;5061212;28;20025;-74
2022/03/18 07:36:55;;;;;;;13.88;3.50;;;;;;;;;;5054832;28;20086;-70
2022/03/18 07:39:21;;;;;;;11.60;3.47;;;;;;;;;;5059887;28;20028;-69
2022/03/18 07:41:47;;;;;;;14.43;3.45;;;;;;;;;;5060287;28;20029;-70
2022/03/18 07:44:14;;;;;;;10.27;2.65;;;;;;;;;;5054132;28;20025;-69
2022/03/18 07:46:40;;;;;;;10.60;2.60;;;;;;;;;;5053692;28;20033;-70
2022/03/18 07:49:06;;;;;;;9.32;2.80;;;;;;;;;;5052982;28;20413;-70
2022/03/18 07:51:32;;;;;;;9.25;2.25;;;;;;;;;;5053009;28;20025;-70
2022/03/18 07:53:58;;;;;;;11.05;3.70;;;12.20;55.20;;;;;;5053742;28;20025;-69
2022/03/18 07:56:24;;;;;;;13.38;2.67;;;;;;;;;;5053925;28;20373;-74
2022/03/18 07:58:50;;;;;;;14.18;2.85;;;10.80;57.80;;;;;;5051204;28;20025;-72
2022/03/18 08:01:17;;;;;;;17.50;2.65;;;;;;;;;;5053610;28;20041;-70
2022/03/18 08:03:43;;;;;;;9.55;2.85;;;;;;;;;;5058163;28;20096;-69
2022/03/18 08:06:08;;;;;;;12.63;2.40;;;15.50;45.00;;;;;;5053705;28;20099;-71
2022/03/18 08:08:34;;;;;;;12.52;2.45;;;15.90;42.70;;;;;;5049418;28;20029;-69
2022/03/18 08:11:00;;;;;;;11.75;2.40;;;15.90;44.40;;;;;;5052704;28;20053;-72
2022/03/18 08:13:26;;;;;;;7.90;2.42;;;;;;;;;;5051590;28;20089;-70
2022/03/18 08:15:52;;;;;;;8.00;2.33;;;17.20;40.10;;;;;;5053436;28;20032;-71
2022/03/18 08:18:19;;;;;;;11.80;2.80;;;18.50;35.90;;;;;;5053226;28;20021;-70
2022/03/18 08:20:48;;;;;;;12.00;3.22;;;18.20;36.40;;;;;;5052858;28;20029;-71
2022/03/18 08:23:15;;;;;;;13.32;3.15;;;;;;;;;;5046667;28;20029;-72
2022/03/18 08:25:41;;;;;;;10.63;2.33;;;15.60;39.50;;;;;;5050400;28;20039;-72
2022/03/18 08:28:07;;;;;;;12.10;2.83;;;13.80;46.50;;;;;;5049018;28;20025;-70
2022/03/18 08:30:34;;;;;;;8.88;2.15;;;12.80;51.20;;;;;;5047640;28;20503;-70
2022/03/18 08:32:59;;;;;;;10.00;2.45;;;11.30;54.20;;;;;;5045533;28;20025;-71
2022/03/18 08:35:25;;;;;;;13.85;2.88;;;;;;;;;;5051049;28;20582;-72
2022/03/18 08:37:58;;;;;;;8.88;2.25;;;13.90;48.80;;;;;;5053679;28;20025;-71
2022/03/18 08:40:28;;;;;;;10.73;2.20;;;17.30;39.10;;;;;;5054447;28;20039;-71
2022/03/18 08:42:54;;;;;;;11.50;2.50;;;;;;;;;;5042669;28;20028;-70
2022/03/18 08:45:20;;;;;;;12.45;2.50;;;18.40;36.00;;;;;;5052635;28;20045;-72
2022/03/18 08:47:46;;;;;;;15.95;3.17;;;18.80;35.50;;;;;;5054923;28;20035;-71
2022/03/18 08:50:13;;;;;;;10.57;2.88;;;14.60;40.30;;;;;;5049913;28;20029;-70
2022/03/18 08:52:39;;;;;;;11.65;2.67;;;;;;;;;;5054589;28;20055;-72
2022/03/18 08:55:07;;;;;;;9.95;2.90;;;16.20;38.80;;;;;;5050625;28;20025;-72
2022/03/18 08:57:36;;;;;;;12.88;2.95;;;;;;;;;;5046195;28;20025;-71
2022/03/18 09:00:05;;;;;;;13.10;3.85;;;17.20;36.20;;;;;;5065969;28;20036;-72
2022/03/18 09:02:30;;;;;;;14.25;4.20;;;17.70;37.00;;;;;;5056454;28;20036;-71
2022/03/18 09:04:56;;;;;;;15.98;3.75;;;;;;;;;;5055794;28;20025;-70
2022/03/18 09:07:22;;;;;;;12.23;3.17;;;17.30;37.80;;;;;;5055991;28;20397;-71
2022/03/18 09:09:48;;;;;;;10.05;3.65;;;15.70;37.20;;;;;;5057334;28;20025;-72
2022/03/18 09:12:17;;;;;;;15.75;3.60;;;15.80;39.90;;;;;;5058283;28;20112;-70
2022/03/18 09:14:42;;;;;;;19.30;3.33;;;11.90;48.90;;;;;;5056540;28;20029;-69
2022/03/18 09:17:08;;;;;;;16.38;3.25;;;10.40;55.10;;;;;;5059751;28;20063;-71
2022/03/18 09:19:37;;;;;;;13.73;3.67;;;10.20;56.00;;;;;;5059065;28;20057;-71
2022/03/18 09:22:06;;;;;;;13.45;3.35;;;10.40;57.20;;;;;;5058404;28;20489;-71
2022/03/18 09:24:34;;;;;;;11.80;2.97;;;10.50;57.50;;;;;;5058970;28;20039;-69
2022/03/18 09:27:00;;;;;;;11.88;3.50;;;;;;;;;;5056609;28;20163;-70
2022/03/18 09:29:26;;;;;;;15.68;3.92;;;9.10;61.20;;;;;;5052597;28;20025;-74
2022/03/18 09:31:52;;;;;;;14.00;3.67;;;8.90;63.60;;;;;;5053427;28;20025;-71
2022/03/18 09:34:22;;;;;;;20.83;3.92;;;9.10;62.50;;;;;;5053776;28;20037;-71
2022/03/18 09:36:48;;;;;;;16.75;3.60;;;9.40;62.60;;;;;;5055705;28;20021;-71
2022/03/18 09:39:14;;;;;;;16.10;3.78;;;9.30;62.60;;;;;;5057763;28;20031;-71
2022/03/18 09:41:40;;;;;;;15.52;4.28;;;9.90;61.30;;;;;;5047605;28;20489;-71
2022/03/18 09:44:05;;;;;;;16.70;3.97;;;9.70;60.20;;;;;;5058386;28;20037;-71
2022/03/18 09:46:32;;;;;;;18.73;4.55;;;10.10;60.20;;;;;;5041962;28;20030;-73
2022/03/18 09:49:00;;;;;;;13.15;4.15;;;9.70;60.90;;;;;;5051638;28;20025;-71
2022/03/18 09:51:26;;;;;;;13.77;4.25;;;10.00;61.10;;;;;;5055052;28;20100;-71
2022/03/18 09:53:51;;;;;;;18.15;4.88;;;10.20;60.70;;;;;;5056083;28;20063;-72
2022/03/18 09:56:17;;;;;;;14.75;3.83;;;10.10;59.80;;;;;;5055604;28;20043;-70
2022/03/18 09:58:42;;;;;;;12.00;4.63;;;10.30;60.00;;;;;;5054728;28;20021;-71
2022/03/18 10:01:08;;;;;;;18.02;4.03;;;10.40;59.30;;;;;;5057522;28;20043;-71
2022/03/18 10:03:41;;;;;;;14.15;4.40;;;10.50;59.00;;;;;;5061143;28;20048;-70
2022/03/18 10:06:10;;;;;;;16.73;4.38;;;9.90;60.60;;;;;;5055492;28;20115;-69
2022/03/18 10:08:35;;;;;;;16.30;5.03;;;10.00;60.40;;;;;;5056841;28;20025;-72
2022/03/18 10:11:23;;;;;;;15.30;4.80;;;10.10;60.50;;;;;;5055299;28;20028;-71
2022/03/18 10:13:59;;;;;;;18.10;5.10;;;10.30;59.90;;;;;;5063251;28;20173;-70
2022/03/18 10:16:36;;;;;;;17.63;5.40;;;10.20;60.30;;;;;;5056273;28;20024;-72
2022/03/18 10:19:05;;;;;;;19.15;6.15;;;10.50;59.70;;;;;;5054802;28;20040;-71
2022/03/18 10:21:31;;;;;;;17.73;5.50;;;10.30;59.90;;;;;;5051037;28;20029;-73
2022/03/18 10:24:04;;;;;;;16.05;5.97;;;10.30;59.70;;;;;;5057726;28;20045;-70
2022/03/18 10:26:34;;;;;;;16.98;5.45;;;10.50;59.60;;;;;;5063620;28;20064;-70
2022/03/18 10:29:03;;;;;;;17.63;5.05;;;10.20;59.30;;;;;;5066911;28;20025;-70
2022/03/18 10:31:29;;;;;;;16.83;4.80;;;10.10;59.50;;;;;;5058725;28;20021;-70
2022/03/18 10:37:05;;;;;;;19.98;4.88;;;10.10;59.80;;;;;;5053025;28;20029;-71
2022/03/18 10:39:40;;;;;;;14.32;4.43;;;10.20;59.20;;;;;;5051734;28;20032;-70
2022/03/18 10:42:09;;;;;;;;;;;10.40;59.00;;;;;;5052972;28;20037;-70
2022/03/18 10:44:52;;;;;;;15.98;4.72;;;10.60;58.80;;;;;;5053674;28;20254;-71
2022/03/18 10:47:33;;;;;;;15.73;4.75;;;10.40;58.40;;;;;;5042788;28;20159;-71
2022/03/18 10:50:15;;;;;;;21.58;5.68;;;10.30;59.00;;;;;;5050863;28;20415;-69
2022/03/18 10:52:49;;;;;;;15.88;4.70;;;10.30;59.10;;;;;;5046639;28;20025;-69
2022/03/18 10:55:23;;;;;;;16.48;4.95;;;10.30;59.20;;;;;;5049552;28;20036;-70
2022/03/18 10:57:50;;;;;;;16.38;4.88;;;10.60;58.40;;;;;;5050030;28;20029;-70
2022/03/18 11:00:15;;;;;;;16.83;4.70;;;10.80;58.20;;;;;;5049849;28;20029;-70
2022/03/18 11:02:42;;;;;;;14.50;5.00;;;10.90;57.50;;;;;;5052637;28;20036;-70
2022/03/18 11:05:12;;;;;;;10.63;4.30;;;10.70;57.50;;;;;;5049067;28;20028;-71
2022/03/18 11:07:41;;;;;;;14.43;5.20;;;10.80;56.90;;;;;;5055229;28;20060;-70
2022/03/18 11:12:56;;;;;;;20.83;5.57;;;10.70;56.60;;;;;;5050197;28;20381;-71
2022/03/18 11:15:26;;;;;;;16.73;4.90;;;10.90;57.00;;;;;;5045504;28;20035;-69
2022/03/18 11:17:55;;;;;;;16.88;4.93;;;10.80;56.90;;;;;;5051995;28;20029;-71
2022/03/18 11:20:24;;;;;;;11.80;4.53;;;10.90;57.10;;;;;;5059986;28;20021;-70
2022/03/18 11:22:52;;;;;;;17.92;5.18;;;11.10;56.30;;;;;;5043683;28;20021;-70
2022/03/18 11:25:19;;;;;;;16.92;4.72;;;11.10;55.80;;;;;;5051690;28;20690;-71
2022/03/18 11:27:46;;;;;;;17.30;5.68;;;11.20;55.70;;;;;;5053850;28;20029;-69
2022/03/18 11:30:34;;;;;;;17.15;4.82;;;10.90;55.80;;;;;;5050801;28;20039;-71
2022/03/18 11:33:06;;;;;;;16.33;4.93;;;11.10;55.80;;;;;;5053094;28;20029;-70
2022/03/18 11:35:50;;;;;;;14.63;5.30;;;11.50;54.90;;;;;;5052581;28;20017;-70
2022/03/18 11:38:28;;;;;;;10.85;4.45;;;11.30;55.20;;;;;;5043009;28;20040;-65
2022/03/18 11:41:03;;;;;;;15.75;5.10;;;11.40;55.60;;;;;;5048372;28;20112;-63
2022/03/18 11:43:42;;;;;;;21.40;5.35;;;11.60;54.80;;;;;;5045595;28;20036;-71
2022/03/18 11:46:14;;;;;;;15.05;4.85;;;11.80;54.10;;;;;;5056028;28;20035;-70
2022/03/18 11:48:46;;;;;;;16.90;5.22;;;11.80;54.20;;;;;;5058711;28;20413;-71
2022/03/18 11:51:32;;;;;;;14.70;5.65;;;11.50;54.70;;;;;;5050388;28;20017;-73
2022/03/18 11:54:16;;;;;;;14.10;4.45;;;11.60;54.00;;;;;;5052661;28;20108;-70
2022/03/18 11:56:57;;;;;;;14.38;4.70;;;11.70;53.50;;;;;;5047218;28;20037;-72
2022/03/18 11:59:27;;;;;;;13.02;4.85;;;11.80;53.00;;;;;;5056949;28;20017;-71
2022/03/18 12:02:00;;;;;;;13.85;4.82;;;11.80;53.00;;;;;;5057497;28;20021;-69
2022/03/18 12:04:40;;;;;;;14.82;5.55;;;11.80;52.90;;;;;;5061703;28;20033;-70
2022/03/18 12:07:19;;;;;;;21.50;4.90;;;11.80;53.50;;;;;;5053359;28;20033;-70
2022/03/18 12:09:49;;;;;;;13.38;4.38;;;11.80;53.50;;;;;;5054862;28;20083;-71
2022/03/18 12:12:18;;;;;;;14.23;4.75;;;11.90;53.30;;;;;;5043341;28;20029;-70
2022/03/18 12:14:44;;;;;;;15.48;4.68;;;12.10;53.10;;;;;;5054116;28;20113;-71
2022/03/18 12:17:09;;;;;;;15.60;4.85;;;11.90;52.90;;;;;;5053431;28;20029;-71
2022/03/18 12:19:38;;;;;;;18.88;4.75;;;12.00;53.50;;;;;;5051953;28;20163;-70
2022/03/18 12:22:06;;;;;;;13.43;3.88;;;12.20;52.50;;;;;;5046507;28;20451;-71
2022/03/18 12:24:32;;;;;;;13.05;4.28;;;12.30;52.10;;;;;;5043227;28;20029;-71
2022/03/18 12:27:00;;;;;;;12.70;4.60;;;12.50;51.50;;;;;;5052357;28;20033;-72
2022/03/18 12:29:27;;;;;;;16.92;4.53;;;12.60;51.00;;;;;;5052620;28;20029;-72
2022/03/18 12:32:09;;;;;;;10.57;3.78;;;12.50;51.00;;;;;;5051175;28;20029;-71
2022/03/18 12:34:56;;;;;;;16.08;3.45;;;12.30;50.50;;;;;;5051173;28;20021;-70
2022/03/18 12:37:30;;;;;;;12.02;3.47;;;12.10;50.50;;;;;;5049311;28;20025;-71
2022/03/18 12:40:14;;;;;;;14.63;4.07;;;12.40;50.10;;;;;;5051490;28;20036;-71
2022/03/18 12:42:57;;;;;;;9.35;3.58;;;12.40;50.00;;;;;;5046533;28;20620;-70
2022/03/18 12:45:43;;;;;;;15.63;3.72;;;12.50;50.10;;;;;;5051644;28;20021;-71
2022/03/18 12:48:13;;;;;;;14.70;3.63;;;12.70;49.50;;;;;;5051719;28;20029;-70
2022/03/18 12:50:42;;;;;;;10.02;3.08;;;12.80;48.40;;;;;;5052058;28;20028;-71
2022/03/18 12:53:11;;;;;;;9.57;3.17;;;12.80;48.60;;;;;;5051467;28;20389;-71
2022/03/18 12:55:37;;;;;;;8.75;2.65;;;12.90;48.10;;;;;;5047455;28;20025;-71
2022/03/18 12:58:04;;;;;;;11.13;3.00;;;13.00;47.70;;;;;;5046664;28;20115;-71
2022/03/18 13:00:38;;;;;;;15.32;2.78;;;12.50;47.20;;;;;;5053026;28;20043;-71
2022/03/18 13:03:17;;;;;;;12.30;2.67;;;12.50;47.40;;;;;;5052749;28;20033;-73
2022/03/18 13:05:49;;;;;;;5.15;2.17;;;12.60;47.10;;;;;;5052641;28;20094;-72
2022/03/18 13:08:16;;;;;;;7.95;2.33;;;12.70;46.40;;;;;;5058063;22;20102;-64
2022/03/18 13:10:42;;;;;;;13.00;2.78;;;12.80;46.50;;;;;;5052964;28;20028;-65
2022/03/18 13:13:14;;;;;;;9.50;2.40;;;12.80;46.50;;;;;;5048549;28;20028;-65
2022/03/18 13:15:47;;;;;;;11.13;2.78;;;12.80;46.30;;;;;;5052803;28;20025;-65
2022/03/18 13:18:17;;;;;;;10.00;2.40;;;12.90;46.40;;;;;;5026746;28;20026;-64
2022/03/18 13:20:44;;;;;;;9.35;2.60;;;13.00;45.70;;;;;;5032863;28;20041;-64
2022/03/18 13:23:10;;;;;;;6.90;2.38;;;13.10;45.20;;;;;;5031952;28;20029;-64
2022/03/18 13:25:37;;;;;;;8.27;2.20;;;12.90;44.00;;;;;;5031918;28;20516;-64